createdAt,value
2022-08-22T00:00:00.203Z,81.6
2022-08-22T00:05:00.200Z,82.2
2022-08-22T00:10:00.188Z,82.2
2022-08-22T00:15:00.189Z,82.2
2022-08-22T00:20:00.189Z,82.2
2022-08-22T00:25:00.205Z,82.2
2022-08-22T00:30:00.182Z,81.6
2022-08-22T00:35:00.200Z,81.6
2022-08-22T00:40:00.304Z,82.2
2022-08-22T00:45:00.203Z,82.2
2022-08-22T00:50:00.223Z,82.2
2022-08-22T00:55:00.197Z,82.8
2022-08-22T01:00:00.224Z,82.5
2022-08-22T01:05:00.213Z,82.8
2022-08-22T01:10:00.230Z,83.1
2022-08-22T01:15:00.236Z,82.8
2022-08-22T01:20:00.237Z,83.4
2022-08-22T01:25:00.199Z,84
2022-08-22T01:30:00.266Z,84
2022-08-22T01:35:00.182Z,84.3
2022-08-22T01:40:00.343Z,84.6
2022-08-22T01:45:00.192Z,84.6
2022-08-22T01:50:00.207Z,84.3
2022-08-22T01:55:00.188Z,84
2022-08-22T02:00:00.212Z,84
2022-08-22T02:05:00.316Z,84
2022-08-22T02:10:00.303Z,84.6
2022-08-22T02:15:00.199Z,84.3
2022-08-22T02:20:00.208Z,84.3
2022-08-22T02:25:00.219Z,84
2022-08-22T02:30:00.223Z,84
2022-08-22T02:35:00.201Z,84.9
2022-08-22T02:40:00.325Z,85.2
2022-08-22T02:45:00.209Z,85.8
2022-08-22T02:50:00.199Z,85.8
2022-08-22T02:55:00.225Z,85.8
2022-08-22T03:00:00.239Z,85.5
2022-08-22T03:05:00.209Z,85.5
2022-08-22T03:10:00.185Z,85.2
2022-08-22T03:15:00.194Z,85.2
2022-08-22T03:20:00.189Z,84.9
2022-08-22T03:25:00.194Z,85.2
2022-08-22T03:30:00.185Z,84.5
2022-08-22T03:35:00.193Z,84.9
2022-08-22T03:40:00.416Z,84.9
2022-08-22T03:45:00.196Z,85.2
2022-08-22T03:50:00.194Z,85.8
2022-08-22T03:55:00.189Z,85.8
2022-08-22T04:00:00.198Z,85.7
2022-08-22T04:05:00.182Z,85.8
2022-08-22T04:10:00.208Z,85.1
2022-08-22T04:15:00.188Z,84.8
2022-08-22T04:20:00.187Z,84.5
2022-08-22T04:25:03.579Z,84.5
2022-08-22T04:30:00.215Z,84.8
2022-08-22T04:35:00.193Z,85.1
2022-08-22T04:40:00.376Z,85.1
2022-08-22T04:45:00.291Z,85.1
2022-08-22T04:50:00.274Z,85.1
2022-08-22T04:55:00.333Z,85.4
2022-08-22T05:00:00.343Z,85.4
2022-08-22T05:05:00.438Z,85.7
2022-08-22T05:10:00.208Z,85.7
2022-08-22T05:15:00.203Z,85.7
2022-08-22T05:20:00.185Z,85.8
2022-08-22T05:25:00.221Z,85.8
2022-08-22T05:30:00.211Z,85.8
2022-08-22T05:35:00.181Z,85.2
2022-08-22T05:40:00.377Z,85.2
2022-08-22T05:45:00.191Z,84.6
2022-08-22T05:50:00.193Z,84
2022-08-22T05:55:00.179Z,82.8
2022-08-22T06:00:00.193Z,82.8
2022-08-22T06:05:00.198Z,81.9
2022-08-22T06:10:00.196Z,79.7
2022-08-22T06:15:00.196Z,78.8
2022-08-22T06:20:00.199Z,81
2022-08-22T06:25:00.191Z,82.6
2022-08-22T06:30:00.211Z,81.1
2022-08-22T06:35:00.189Z,81.1
2022-08-22T06:40:00.351Z,80.9
2022-08-22T06:45:00.182Z,79.9
2022-08-22T06:50:00.192Z,78.7
2022-08-22T06:55:00.189Z,78.1
2022-08-22T07:00:00.191Z,77.2
2022-08-22T07:05:00.179Z,76.9
2022-08-22T07:10:00.194Z,76.6
2022-08-22T07:15:00.198Z,74.1
2022-08-22T07:20:00.206Z,73.8
2022-08-22T07:25:00.194Z,73.2
2022-08-22T07:30:00.185Z,72.6
2022-08-22T07:35:00.187Z,72
2022-08-22T07:40:00.331Z,70.1
2022-08-22T07:45:00.184Z,70.5
2022-08-22T07:50:00.186Z,70.2
2022-08-22T07:55:00.189Z,68.3
2022-08-22T08:00:00.247Z,67.7
2022-08-22T08:05:00.221Z,67.1
2022-08-22T08:10:00.371Z,65.3
2022-08-22T08:15:00.202Z,64
2022-08-22T08:20:00.196Z,62.8
2022-08-22T08:25:00.202Z,62.2
2022-08-22T08:30:00.193Z,60.9
2022-08-22T08:35:00.195Z,59.7
2022-08-22T08:40:00.319Z,60.4
2022-08-22T08:45:00.201Z,57.8
2022-08-22T08:50:00.193Z,57.9
2022-08-22T08:55:00.202Z,59.8
2022-08-22T09:00:00.188Z,57.6
2022-08-22T09:05:00.206Z,57.3
2022-08-22T09:10:00.191Z,55.4
2022-08-22T09:15:00.278Z,54.1
2022-08-22T09:20:00.224Z,54.2
2022-08-22T09:25:00.236Z,53.5
2022-08-22T09:30:00.232Z,52.6
2022-08-22T09:35:00.243Z,52.9
2022-08-22T09:40:00.331Z,49.4
2022-08-22T09:45:00.217Z,49.7
2022-08-22T09:50:00.195Z,47.7
2022-08-22T09:55:00.194Z,48.6
2022-08-22T10:00:00.211Z,52.5
2022-08-22T10:05:00.198Z,54.7
2022-08-22T10:10:00.206Z,52.2
2022-08-22T10:15:00.192Z,51.9
2022-08-22T10:20:00.220Z,47.7
2022-08-22T10:25:00.185Z,45.2
2022-08-22T10:30:00.225Z,47.5
2022-08-22T10:35:00.214Z,45.2
2022-08-22T10:40:00.384Z,41.9
2022-08-22T10:45:00.186Z,45.2
2022-08-22T10:50:00.218Z,45.2
2022-08-22T10:55:00.209Z,44.5
2022-08-22T11:00:00.229Z,43.9
2022-08-22T11:05:00.198Z,43.3
2022-08-22T11:10:00.208Z,40.7
2022-08-22T11:15:00.189Z,41.7
2022-08-22T11:20:00.325Z,41.3
2022-08-22T11:25:04.239Z,40.7
2022-08-22T11:30:00.232Z,41.4
2022-08-22T11:35:00.434Z,39.4
2022-08-22T11:40:00.308Z,39.4
2022-08-22T11:45:00.219Z,40.4
2022-08-22T11:50:00.198Z,36.2
2022-08-22T11:55:00.206Z,41.4
2022-08-22T12:00:00.197Z,38.8
2022-08-22T12:05:00.187Z,40.8
2022-08-22T12:10:00.195Z,38.8
2022-08-22T12:15:00.209Z,41.4
2022-08-22T12:20:16.478Z,38.8
2022-08-22T12:25:02.996Z,36.9
2022-08-22T12:30:00.187Z,38.5
2022-08-22T12:35:00.192Z,41.5
2022-08-22T12:40:00.339Z,38.9
2022-08-22T12:45:00.196Z,40.2
2022-08-22T12:50:00.206Z,35.9
2022-08-22T12:55:00.189Z,37.6
2022-08-22T13:00:00.207Z,37.6
2022-08-22T13:05:00.193Z,35
2022-08-22T13:10:00.265Z,38.2
2022-08-22T13:15:00.212Z,31
2022-08-22T13:20:00.230Z,33
2022-08-22T13:25:00.206Z,28.8
2022-08-22T13:30:00.204Z,35.6
2022-08-22T13:35:00.189Z,33.7
2022-08-22T13:40:00.283Z,35.3
2022-08-22T13:45:00.188Z,36.3
2022-08-22T13:50:00.206Z,33.7
2022-08-22T13:55:00.196Z,35.6
2022-08-22T14:00:06.285Z,34.9
2022-08-22T14:05:00.196Z,33
2022-08-22T14:10:00.180Z,33.6
2022-08-22T14:15:00.197Z,34.3
2022-08-22T14:20:01.448Z,34.3
2022-08-22T14:25:00.187Z,34.6
2022-08-22T14:30:00.246Z,34.9
2022-08-22T14:35:00.183Z,33.6
2022-08-22T14:40:00.297Z,36.2
2022-08-22T14:45:00.197Z,33.6
2022-08-22T14:50:00.211Z,35.9
2022-08-22T14:55:02.884Z,33.6
2022-08-22T15:00:00.201Z,33.9
2022-08-22T15:05:00.188Z,35.9
2022-08-22T15:10:01.078Z,35.9
2022-08-22T15:15:00.181Z,32.9
2022-08-22T15:20:00.392Z,36.5
2022-08-22T15:25:00.185Z,36.2
2022-08-22T15:30:00.194Z,36.8
2022-08-22T15:35:00.215Z,38.1
2022-08-22T15:40:00.275Z,38.1
2022-08-22T15:45:00.202Z,36.2
2022-08-22T15:50:00.198Z,36.8
2022-08-22T15:55:00.190Z,39.7
2022-08-22T16:00:00.190Z,39.4
2022-08-22T16:05:00.202Z,39.4
2022-08-22T16:10:00.213Z,39.4
2022-08-22T16:15:00.201Z,40.7
2022-08-22T16:20:00.310Z,39.7
2022-08-22T16:25:00.240Z,37.8
2022-08-22T16:30:00.227Z,41
2022-08-22T16:35:00.193Z,40
2022-08-22T16:40:00.300Z,41.3
2022-08-22T16:45:00.185Z,41.6
2022-08-22T16:50:00.222Z,39.9
2022-08-22T16:55:00.180Z,42.8
2022-08-22T17:00:00.188Z,44.5
2022-08-22T17:05:00.191Z,43.8
2022-08-22T17:10:00.185Z,47.7
2022-08-22T17:15:00.195Z,46.3
2022-08-22T17:20:00.226Z,47
2022-08-22T17:25:00.183Z,47.6
2022-08-22T17:30:00.212Z,48.2
2022-08-22T17:35:00.203Z,48.5
2022-08-22T17:40:00.508Z,46.6
2022-08-22T17:45:00.192Z,48.2
2022-08-22T17:50:00.183Z,49.1
2022-08-22T17:55:00.208Z,50.1
2022-08-22T18:00:00.205Z,53.9
2022-08-22T18:05:00.196Z,57.1
2022-08-22T18:10:00.194Z,58.7
2022-08-22T18:15:00.226Z,60.9
2022-08-22T18:20:00.211Z,63.4
2022-08-22T18:25:00.198Z,65.2
2022-08-22T18:30:00.195Z,66.5
2022-08-22T18:35:02.728Z,67.1
2022-08-22T18:40:00.302Z,67.4
2022-08-22T18:45:00.201Z,68.3
2022-08-22T18:50:00.211Z,68.6
2022-08-22T18:55:00.235Z,69.5
2022-08-22T19:00:00.236Z,70.1
2022-08-22T19:05:00.211Z,70.7
2022-08-22T19:10:00.203Z,72
2022-08-22T19:15:00.213Z,72
2022-08-22T19:20:00.191Z,72.6
2022-08-22T19:25:00.197Z,73.5
2022-08-22T19:30:00.191Z,73.8
2022-08-22T19:35:02.099Z,74.4
2022-08-22T19:40:00.347Z,74.4
2022-08-22T19:45:00.295Z,73.8
2022-08-22T19:50:00.186Z,74.7
2022-08-22T19:55:00.198Z,75.3
2022-08-22T20:00:00.367Z,75.7
2022-08-22T20:05:00.201Z,75.9
2022-08-22T20:10:00.220Z,76.2
2022-08-22T20:15:00.192Z,76.5
2022-08-22T20:20:19.192Z,76.9
2022-08-22T20:25:00.200Z,76.8
2022-08-22T20:30:00.192Z,77.5
2022-08-22T20:35:00.204Z,78.1
2022-08-22T20:40:00.304Z,78.1
2022-08-22T20:45:00.205Z,78.4
2022-08-22T20:50:00.197Z,78.7
2022-08-22T20:55:00.198Z,79
2022-08-22T21:00:00.203Z,79.3
2022-08-22T21:05:00.236Z,79.9
2022-08-22T21:10:00.210Z,79.9
2022-08-22T21:15:00.237Z,79.9
2022-08-22T21:20:00.184Z,79.9
2022-08-22T21:25:00.191Z,80.5
2022-08-22T21:30:00.205Z,80.5
2022-08-22T21:35:00.220Z,80.5
2022-08-22T21:40:00.370Z,80.5
2022-08-22T21:45:00.225Z,81.1
2022-08-22T21:50:00.249Z,80.5
2022-08-22T21:55:00.192Z,81.1
2022-08-22T22:00:00.341Z,80.8
2022-08-22T22:05:00.207Z,80.5
2022-08-22T22:10:00.240Z,80.5
2022-08-22T22:15:00.201Z,80.5
2022-08-22T22:20:00.194Z,81.1
2022-08-22T22:25:00.201Z,80.7
2022-08-22T22:30:00.183Z,81
2022-08-22T22:35:00.197Z,81
2022-08-22T22:40:00.291Z,81.3
2022-08-22T22:45:00.193Z,81
2022-08-22T22:50:00.200Z,81
2022-08-22T22:55:00.220Z,80.4
2022-08-22T23:00:00.219Z,80.4
2022-08-22T23:05:00.198Z,80.4
2022-08-22T23:10:01.434Z,81.3
2022-08-22T23:15:00.197Z,81
2022-08-22T23:20:00.193Z,81
2022-08-22T23:25:00.214Z,81
2022-08-22T23:30:00.259Z,80.3
2022-08-22T23:35:00.237Z,80.3
2022-08-22T23:40:00.375Z,79.7
2022-08-22T23:45:00.251Z,80.3
2022-08-22T23:50:04.370Z,80.9
2022-08-22T23:55:00.291Z,80.6
